EGVP

Middle Wallop Airfield Airport

Middle Wallop, United Kingdom
METAR EGVP 142250Z AUTO 11009KT 9999 // OVC036/// 02/M02 Q1020
Observed Flight Rules
Dec-14 @ 22:50 UTC (an hour ago) Visual Flight Rules
Wind Visibility Clouds
110° at 9 knots 10,000+ meters
  • Overcast at 3,600' AGL
Temperatures Readings
Current 2°C / 36°F
Dewpoint -2°C / 28°F
Humidity 75%
Altimeter 30.12" Hg
Pressure 1020 hPa
Elevation 91
METAR EGVP 142250Z AUTO 11009KT 9999 // OVC036/// 02/M02 Q1020
Observed Flight Rules
Dec-14 @ 22:50 UTC
(an hour ago)
VFR
Wind Visibility
110° at 9 knots 10,000+ meters
Clouds
  • Overcast at 3,600' AGL
Temperature Dewpoint
2°C / 36°F -2°C / 28°F
Humidity Altimeter Pressure
75% 30.12" Hg 1020 hPa